Time;durP1;ratioP1;P1;durP2;ratioP2;P2;SDS_P1;SDS_P2;PMS_P1;PMS_P2;Temp;Humidity;BMP_temperature;BMP_pressure;BME280_temperature;BME280_humidity;BME280_pressure;Samples;Min_cycle;Max_cycle;Signal;HPM_P1;HPM_P2
2022/05/02 00:02:12;;;;;;;12.18;7.18;;;7.60;99.90;;;;;;5046594;28;20084;-67
2022/05/02 00:04:37;;;;;;;11.98;8.00;;;7.60;99.90;;;;;;5047775;28;20043;-67
2022/05/02 00:07:03;;;;;;;12.85;7.95;;;7.60;99.90;;;;;;5048666;28;20052;-67
2022/05/02 00:09:29;;;;;;;12.65;7.97;;;7.60;99.90;;;;;;5046551;28;20045;-66
2022/05/02 00:11:54;;;;;;;9.90;6.97;;;7.50;99.90;;;;;;5048509;28;20076;-67
2022/05/02 00:14:20;;;;;;;10.25;7.95;;;7.50;99.90;;;;;;5047161;28;20091;-67
2022/05/02 00:16:45;;;;;;;12.07;8.18;;;7.50;99.90;;;;;;5050488;28;20055;-67
2022/05/02 00:19:12;;;;;;;10.40;7.72;;;7.40;99.90;;;;;;5050962;28;20140;-67
2022/05/02 00:21:37;;;;;;;11.63;8.38;;;7.40;99.90;;;;;;5047496;28;20076;-66
2022/05/02 00:24:03;;;;;;;10.25;7.65;;;7.40;99.90;;;;;;5047996;28;20067;-67
2022/05/02 00:26:29;;;;;;;14.13;8.30;;;7.40;99.90;;;;;;5048421;28;20057;-67
2022/05/02 00:28:54;;;;;;;11.20;8.23;;;7.40;99.90;;;;;;5046457;28;20512;-67
2022/05/02 00:31:20;;;;;;;13.95;8.63;;;7.30;99.90;;;;;;5029605;28;20770;-67
2022/05/02 00:33:46;;;;;;;13.02;8.38;;;7.30;99.90;;;;;;5029885;28;20041;-67
2022/05/02 00:36:12;;;;;;;13.85;8.52;;;7.30;99.90;;;;;;5047803;28;20051;-67
2022/05/02 00:38:38;;;;;;;11.80;8.65;;;7.30;99.90;;;;;;5048170;28;20116;-67
2022/05/02 00:41:04;;;;;;;11.82;8.10;;;7.30;99.90;;;;;;5048496;28;20132;-67
2022/05/02 00:43:29;;;;;;;11.18;8.30;;;7.20;99.90;;;;;;5045455;28;20060;-67
2022/05/02 00:45:56;;;;;;;12.55;8.32;;;7.20;99.90;;;;;;5047118;28;20037;-67
2022/05/02 00:48:21;;;;;;;13.25;9.32;;;7.20;99.90;;;;;;5048143;28;20049;-67
2022/05/02 00:50:47;;;;;;;13.98;8.52;;;7.10;99.90;;;;;;5046796;28;20040;-67
2022/05/02 00:53:20;;;;;;;12.85;8.35;;;7.10;99.90;;;;;;5046898;28;20119;-67
2022/05/02 00:55:46;;;;;;;14.25;8.75;;;7.10;99.90;;;;;;5047687;28;20051;-67
2022/05/02 00:58:15;;;;;;;11.15;8.15;;;7.10;99.90;;;;;;5045614;28;20044;-67
2022/05/02 01:00:41;;;;;;;12.13;8.80;;;7.10;99.90;;;;;;5047909;28;20429;-67
2022/05/02 01:03:09;;;;;;;12.15;8.05;;;7.00;99.90;;;;;;5047787;28;20417;-67
2022/05/02 01:08:30;;;;;;;12.32;8.48;;;7.10;99.90;;;;;;5050682;28;20061;-68
2022/05/02 01:10:57;;;;;;;10.43;8.18;;;7.00;99.90;;;;;;5051421;28;20084;-68
2022/05/02 01:13:37;;;;;;;14.20;9.35;;;7.00;99.90;;;;;;5050410;28;20129;-67
2022/05/02 01:16:21;;;;;;;11.63;9.02;;;7.00;99.90;;;;;;5051770;28;20059;-66
2022/05/02 01:18:52;;;;;;;13.52;9.43;;;7.00;99.90;;;;;;5050333;28;20540;-66
2022/05/02 01:21:22;;;;;;;12.23;8.40;;;6.90;99.90;;;;;;5052278;28;20099;-66
2022/05/02 01:23:51;;;;;;;11.32;9.20;;;6.90;99.90;;;;;;5052507;28;20049;-67
2022/05/02 01:26:17;;;;;;;14.93;10.75;;;6.90;99.90;;;;;;5051046;28;20420;-67
2022/05/02 01:28:47;;;;;;;12.98;9.38;;;6.90;99.90;;;;;;5049219;28;20044;-66
2022/05/02 01:31:14;;;;;;;12.35;8.98;;;6.90;99.90;;;;;;5050819;28;20382;-66
2022/05/02 01:33:40;;;;;;;12.50;9.73;;;6.80;99.90;;;;;;5049847;28;20119;-67
2022/05/02 01:36:06;;;;;;;16.20;9.60;;;6.80;99.90;;;;;;5051868;28;20199;-67
2022/05/02 01:38:32;;;;;;;13.60;9.55;;;6.80;99.90;;;;;;5051495;28;20535;-67
2022/05/02 01:40:59;;;;;;;12.57;9.80;;;6.80;99.90;;;;;;5050910;28;20056;-67
2022/05/02 01:43:26;;;;;;;14.25;9.05;;;6.80;99.90;;;;;;5050844;28;20459;-67
2022/05/02 01:45:51;;;;;;;15.52;10.57;;;6.80;99.90;;;;;;5049978;28;20037;-66
2022/05/02 01:48:17;;;;;;;12.48;9.20;;;6.80;99.90;;;;;;5050779;28;20056;-67
2022/05/02 01:50:42;;;;;;;15.07;9.82;;;6.80;99.90;;;;;;5033073;28;20492;-67
2022/05/02 01:53:08;;;;;;;12.85;9.55;;;6.70;99.90;;;;;;5049989;28;20048;-67
2022/05/02 01:55:34;;;;;;;15.70;10.30;;;6.70;99.90;;;;;;5032998;28;20132;-67
2022/05/02 01:57:59;;;;;;;14.43;10.10;;;6.70;99.90;;;;;;5050133;28;20542;-66
2022/05/02 02:00:25;;;;;;;13.05;9.88;;;6.70;99.90;;;;;;5050029;28;20060;-67
2022/05/02 02:02:51;;;;;;;16.38;9.95;;;6.70;99.90;;;;;;5050678;28;20052;-67
2022/05/02 02:08:02;;;;;;;12.55;10.00;;;6.60;99.90;;;;;;5029811;28;20045;-68
2022/05/02 02:10:28;;;;;;;13.90;9.68;;;6.60;99.90;;;;;;5051029;28;20327;-67
2022/05/02 02:12:53;;;;;;;14.73;10.35;;;6.50;99.90;;;;;;5049895;28;20080;-67
2022/05/02 02:15:19;;;;;;;15.07;10.05;;;6.50;99.90;;;;;;5048304;28;20099;-67
2022/05/02 02:17:44;;;;;;;13.88;9.88;;;6.50;99.90;;;;;;5049236;28;20195;-67
2022/05/02 02:20:11;;;;;;;17.30;10.82;;;6.50;99.90;;;;;;5032450;28;20045;-66
2022/05/02 02:22:38;;;;;;;13.77;9.88;;;6.50;99.90;;;;;;5031444;28;20132;-68
2022/05/02 02:25:04;;;;;;;14.85;10.85;;;6.50;99.90;;;;;;5049861;28;20496;-68
2022/05/02 02:27:31;;;;;;;14.48;10.90;;;6.50;99.90;;;;;;5065703;28;20053;-68
2022/05/02 02:29:57;;;;;;;14.80;10.20;;;6.50;99.90;;;;;;5048746;28;20476;-67
2022/05/02 02:32:23;;;;;;;17.27;10.55;;;6.40;99.90;;;;;;5049985;28;20183;-67
2022/05/02 02:34:48;;;;;;;13.65;10.98;;;6.70;99.90;;;;;;5049712;28;20041;-67
2022/05/02 02:37:15;;;;;;;16.58;11.23;;;6.40;99.90;;;;;;5049794;28;20530;-67
2022/05/02 02:39:42;;;;;;;14.73;10.45;;;6.40;99.90;;;;;;5049326;28;20164;-67
2022/05/02 02:42:08;;;;;;;12.98;10.32;;;6.40;99.90;;;;;;5031326;28;20433;-68
2022/05/02 02:44:34;;;;;;;14.68;11.15;;;6.40;99.90;;;;;;5048883;28;20144;-67
2022/05/02 02:47:00;;;;;;;13.93;10.65;;;6.30;99.90;;;;;;5048744;28;20487;-67
2022/05/02 02:49:25;;;;;;;14.23;11.57;;;6.30;99.90;;;;;;5048606;28;20049;-67
2022/05/02 02:51:51;;;;;;;14.85;11.18;;;6.30;99.90;;;;;;5049899;28;20033;-66
2022/05/02 02:54:16;;;;;;;15.95;11.18;;;6.30;99.90;;;;;;5048442;28;20099;-67
2022/05/02 02:56:42;;;;;;;16.90;11.45;;;6.30;99.90;;;;;;5049109;28;20043;-67
2022/05/02 02:59:08;;;;;;;16.23;11.45;;;6.30;99.90;;;;;;5049454;28;20075;-67
2022/05/02 03:01:34;;;;;;;16.10;11.52;;;6.30;99.90;;;;;;5049594;28;20486;-67
2022/05/02 03:06:01;;;;;;;15.60;11.75;;;6.30;99.90;;;;;;5048915;28;20115;-67
2022/05/02 03:06:45;;;;;;;14.73;11.60;;;6.30;99.90;;;;;;5049633;28;20041;-67
2022/05/02 03:09:11;;;;;;;14.00;11.32;;;6.20;99.90;;;;;;5048770;28;20056;-67
2022/05/02 03:11:37;;;;;;;15.80;11.93;;;6.40;99.90;;;;;;5049240;28;20079;-68
2022/05/02 03:14:02;;;;;;;16.63;12.10;;;6.20;99.90;;;;;;5048501;28;20053;-67
2022/05/02 03:16:28;;;;;;;16.13;11.40;;;6.20;99.90;;;;;;5048146;28;20539;-67
2022/05/02 03:18:53;;;;;;;17.48;12.15;;;6.20;99.90;;;;;;5048367;28;20126;-67
2022/05/02 03:21:19;;;;;;;16.27;11.88;;;6.20;99.90;;;;;;5049165;28;20087;-67
2022/05/02 03:23:44;;;;;;;16.52;12.13;;;6.20;99.90;;;;;;5049668;28;20151;-67
2022/05/02 03:26:10;;;;;;;17.88;12.38;;;6.20;99.90;;;;;;5049338;28;20045;-67
2022/05/02 03:28:36;;;;;;;15.48;12.25;;;6.20;99.90;;;;;;5030430;28;20404;-67
2022/05/02 03:31:01;;;;;;;16.73;11.90;;;6.20;99.90;;;;;;5048845;28;20071;-67
2022/05/02 03:33:27;;;;;;;16.35;12.52;;;6.20;99.90;;;;;;5047150;28;20051;-67
2022/05/02 03:35:52;;;;;;;15.85;12.40;;;6.20;99.90;;;;;;5050196;28;20492;-67
2022/05/02 03:38:18;;;;;;;15.70;12.55;;;6.20;99.90;;;;;;5049385;28;20047;-67
2022/05/02 03:40:43;;;;;;;17.17;12.25;;;6.60;99.90;;;;;;5049076;28;20336;-67
2022/05/02 03:43:09;;;;;;;17.17;12.38;;;6.10;99.90;;;;;;5048405;28;20040;-67
2022/05/02 03:45:36;;;;;;;18.05;12.48;;;6.10;99.90;;;;;;5047801;28;20036;-68
2022/05/02 03:48:01;;;;;;;17.50;13.00;;;6.10;99.90;;;;;;5048411;28;20052;-67
2022/05/02 03:50:27;;;;;;;15.45;12.45;;;6.10;99.90;;;;;;5049042;28;20040;-68
2022/05/02 03:52:52;;;;;;;21.80;12.93;;;6.90;99.90;;;;;;5028927;28;20524;-67
2022/05/02 03:55:18;;;;;;;17.63;12.65;;;6.10;99.90;;;;;;5048820;28;20147;-67
2022/05/02 03:57:44;;;;;;;19.35;12.90;;;6.10;99.90;;;;;;5047366;28;20123;-68
2022/05/02 04:00:10;;;;;;;16.23;12.30;;;6.10;99.90;;;;;;5048381;28;20045;-67
2022/05/02 04:02:36;;;;;;;19.25;12.68;;;6.10;99.90;;;;;;5030867;28;20080;-67
2022/05/02 04:05:01;;;;;;;15.48;12.98;;;6.10;99.90;;;;;;5047860;28;20132;-67
2022/05/02 04:07:27;;;;;;;14.23;12.18;;;6.10;99.90;;;;;;5029706;28;20063;-67
2022/05/02 04:09:52;;;;;;;17.58;12.52;;;6.10;99.90;;;;;;5047439;28;20049;-67
2022/05/02 04:12:18;;;;;;;16.90;13.20;;;6.10;99.90;;;;;;5055775;28;20373;-67
2022/05/02 04:14:44;;;;;;;19.17;12.80;;;6.00;99.90;;;;;;5066749;28;20082;-66
2022/05/02 04:17:10;;;;;;;19.65;13.02;;;6.70;99.90;;;;;;5068176;28;20063;-67
2022/05/02 04:19:35;;;;;;;19.27;13.43;;;6.10;99.90;;;;;;5052419;28;20116;-66
2022/05/02 04:22:01;;;;;;;16.55;12.25;;;6.10;99.90;;;;;;5057762;28;20392;-67
2022/05/02 04:24:28;;;;;;;17.73;12.85;;;6.10;99.90;;;;;;5057135;28;20047;-67
2022/05/02 04:26:56;;;;;;;15.93;12.52;;;6.10;99.90;;;;;;5069585;28;20052;-67
2022/05/02 04:29:22;;;;;;;19.75;13.13;;;6.10;99.90;;;;;;5067049;28;20052;-67
2022/05/02 04:31:48;;;;;;;19.02;12.95;;;6.10;99.90;;;;;;5068201;28;20063;-66
2022/05/02 04:34:14;;;;;;;15.68;13.30;;;6.10;99.90;;;;;;5067497;28;20098;-67
2022/05/02 04:36:39;;;;;;;18.35;12.75;;;6.20;99.90;;;;;;5033432;28;20060;-67
2022/05/02 04:39:05;;;;;;;17.65;12.95;;;6.20;99.90;;;;;;5050415;28;20037;-67
2022/05/02 04:41:31;;;;;;;17.08;12.75;;;6.20;99.90;;;;;;5047500;28;20499;-67
2022/05/02 04:43:56;;;;;;;17.58;13.25;;;6.20;99.90;;;;;;5048522;28;20091;-67
2022/05/02 04:46:23;;;;;;;19.17;13.50;;;6.20;99.90;;;;;;5047965;28;20071;-67
2022/05/02 04:48:48;;;;;;;20.65;13.18;;;6.30;99.90;;;;;;5047211;28;20055;-67
2022/05/02 04:51:14;;;;;;;16.92;13.68;;;6.30;99.90;;;;;;5047668;28;20494;-66
2022/05/02 04:53:40;;;;;;;19.98;13.60;;;7.30;99.90;;;;;;5029285;28;20053;-67
2022/05/02 04:56:05;;;;;;;17.77;14.18;;;6.40;99.90;;;;;;5048920;28;20064;-66
2022/05/02 04:58:31;;;;;;;22.30;15.30;;;6.40;99.90;;;;;;5045042;28;20041;-66
2022/05/02 05:00:56;;;;;;;16.73;12.77;;;6.40;99.90;;;;;;5047161;28;20045;-66
2022/05/02 05:03:22;;;;;;;18.23;13.75;;;6.40;99.90;;;;;;5047419;28;20508;-67
2022/05/02 05:05:48;;;;;;;16.88;13.02;;;6.50;99.90;;;;;;5045699;28;20037;-67
2022/05/02 05:08:15;;;;;;;16.65;11.75;;;6.50;99.90;;;;;;5046260;28;20052;-67
2022/05/02 05:10:51;;;;;;;15.38;11.40;;;6.50;99.90;;;;;;5046469;28;20472;-67
2022/05/02 05:13:22;;;;;;;16.48;12.60;;;6.50;99.90;;;;;;5047315;28;20052;-67
2022/05/02 05:19:15;;;;;;;15.60;11.70;;;6.50;99.90;;;;;;5027903;28;20485;-67
2022/05/02 05:21:58;;;;;;;17.50;12.55;;;6.50;99.90;;;;;;5047076;28;20052;-66
2022/05/02 05:24:45;;;;;;;16.05;12.50;;;6.50;99.90;;;;;;5043560;28;20060;-66
2022/05/02 05:27:29;;;;;;;16.50;12.02;;;6.50;99.90;;;;;;5056705;28;20040;-67
2022/05/02 05:30:06;;;;;;;17.25;12.68;;;6.60;99.90;;;;;;5064390;28;20123;-66
2022/05/02 05:32:46;;;;;;;18.95;12.50;;;6.70;99.90;;;;;;5050615;28;20053;-66
2022/05/02 05:35:21;;;;;;;17.95;12.93;;;6.70;99.90;;;;;;5067110;28;20037;-67
2022/05/02 05:38:00;;;;;;;20.73;14.07;;;6.80;99.90;;;;;;5065256;28;20044;-68
2022/05/02 05:40:38;;;;;;;20.42;14.40;;;6.80;99.90;;;;;;5041597;28;20508;-67
2022/05/02 05:43:18;;;;;;;22.55;15.27;;;6.90;99.90;;;;;;5047353;28;20155;-67
2022/05/02 05:46:09;;;;;;;17.35;13.57;;;7.60;99.90;;;;;;5047887;28;20041;-67
2022/05/02 05:48:54;;;;;;;23.08;14.38;;;7.10;99.90;;;;;;5061550;28;20084;-67
2022/05/02 05:51:33;;;;;;;21.35;15.02;;;7.20;99.90;;;;;;5046016;28;20049;-67
2022/05/02 05:54:16;;;;;;;19.52;14.18;;;7.20;99.90;;;;;;5029946;28;20527;-67
2022/05/02 05:57:16;;;;;;;23.27;14.20;;;7.30;99.90;;;;;;5030591;28;20050;-67
2022/05/02 06:00:09;;;;;;;20.52;13.48;;;7.40;99.90;;;;;;5027191;28;20041;-67
2022/05/02 06:03:08;;;;;;;20.95;14.45;;;7.40;99.90;;;;;;5039784;28;20087;-67
2022/05/02 06:05:45;;;;;;;23.42;17.08;;;7.50;99.90;;;;;;5035368;28;20452;-67
2022/05/02 06:08:20;;;;;;;25.63;18.77;;;7.60;99.90;;;;;;5045256;28;20511;-67
2022/05/02 06:10:47;;;;;;;27.15;18.58;;;7.70;99.90;;;;;;5047077;28;20053;-67
2022/05/02 06:13:17;;;;;;;21.98;17.10;;;7.80;99.90;;;;;;5045746;28;20498;-66
2022/05/02 06:18:35;;;;;;;20.40;16.13;;;8.00;99.90;;;;;;5015088;28;20581;-67
2022/05/02 06:21:05;;;;;;;21.92;15.73;;;8.10;99.90;;;;;;5046158;28;20044;-67
2022/05/02 06:23:40;;;;;;;20.67;15.13;;;8.10;99.90;;;;;;5011759;28;20526;-67
2022/05/02 06:26:06;;;;;;;20.85;14.40;;;8.20;99.90;;;;;;5047055;28;20500;-67
2022/05/02 06:28:52;;;;;;;18.67;13.93;;;8.30;99.90;;;;;;5045821;28;20380;-67
2022/05/02 06:31:26;;;;;;;23.63;14.30;;;8.40;99.90;;;;;;5047144;28;20132;-67
2022/05/02 06:33:52;;;;;;;19.67;13.88;;;8.50;99.90;;;;;;5045660;28;20315;-68
2022/05/02 06:36:55;;;;;;;19.73;14.68;;;8.60;99.90;;;;;;5043049;28;20477;-67
2022/05/02 06:39:42;;;;;;;21.02;14.55;;;8.70;99.90;;;;;;5044671;28;20041;-68
2022/05/02 06:42:16;;;;;;;19.40;13.55;;;8.80;99.90;;;;;;5045621;28;20044;-68
2022/05/02 06:45:05;;;;;;;20.80;14.23;;;8.90;99.90;;;;;;5045119;28;20152;-67
2022/05/02 06:47:49;;;;;;;20.10;14.40;;;9.00;99.90;;;;;;5045584;28;20547;-67
2022/05/02 06:50:21;;;;;;;19.05;13.40;;;9.10;99.90;;;;;;5026689;28;20091;-68
2022/05/02 06:53:05;;;;;;;17.98;13.25;;;9.20;99.90;;;;;;5045405;28;20052;-67
2022/05/02 06:55:42;;;;;;;20.95;14.95;;;9.30;99.90;;;;;;5038171;28;20345;-67
2022/05/02 06:58:32;;;;;;;19.90;15.18;;;9.70;99.90;;;;;;5044631;28;20045;-67
2022/05/02 07:01:01;;;;;;;23.92;18.88;;;9.50;99.90;;;;;;5045351;28;20400;-69
2022/05/02 07:03:52;;;;;;;25.65;20.20;;;9.60;99.90;;;;;;5044491;28;20064;-67
2022/05/02 07:06:43;;;;;;;27.30;20.75;;;9.70;99.90;;;;;;4993971;28;20111;-68
2022/05/02 07:09:16;;;;;;;26.08;19.85;;;9.80;99.90;;;;;;5022980;28;20054;-68
2022/05/02 07:12:17;;;;;;;22.25;17.63;;;9.70;99.90;;;;;;5027728;28;20060;-67
2022/05/02 07:14:54;;;;;;;17.10;13.05;;;10.00;99.90;;;;;;5041970;28;20154;-66
2022/05/02 07:17:43;;;;;;;19.00;13.63;;;10.10;99.90;;;;;;5045419;28;20155;-66
2022/05/02 07:20:30;;;;;;;20.30;13.27;;;10.20;99.90;;;;;;5019687;28;20477;-68
2022/05/02 07:23:02;;;;;;;16.52;12.68;;;10.30;99.90;;;;;;5044386;28;20119;-67
2022/05/02 07:25:30;;;;;;;16.25;10.52;;;10.50;99.90;;;;;;5045387;28;20045;-67
2022/05/02 07:28:20;;;;;;;16.13;10.02;;;10.60;99.90;;;;;;5045021;28;20045;-67
2022/05/02 07:30:51;;;;;;;15.05;9.02;;;10.70;99.90;;;;;;5044702;28;20041;-67
2022/05/02 07:33:18;;;;;;;16.90;9.27;;;10.80;99.90;;;;;;5045185;28;20096;-67
2022/05/02 07:35:47;;;;;;;13.45;7.45;;;11.90;99.90;;;;;;5044555;28;20045;-67
2022/05/02 07:38:15;;;;;;;13.88;7.88;;;11.00;99.90;;;;;;5060267;28;20052;-67
2022/05/02 07:41:22;;;;;;;16.05;7.50;;;11.00;99.90;;;;;;5026874;28;20075;-67
2022/05/02 07:43:34;;;;;;;13.43;7.45;;;11.10;99.90;;;;;;5042749;28;20109;-67
2022/05/02 07:46:03;;;;;;;10.70;7.13;;;11.20;99.90;;;;;;5044804;28;20451;-67
2022/05/02 07:48:31;;;;;;;13.40;7.05;;;11.30;99.90;;;;;;5045077;28;20466;-67
2022/05/02 07:50:57;;;;;;;9.48;6.75;;;11.40;99.90;;;;;;5044457;28;20867;-67
2022/05/02 07:53:25;;;;;;;10.27;6.57;;;11.50;99.90;;;;;;5043904;28;20052;-67
2022/05/02 07:55:54;;;;;;;8.55;5.97;;;11.60;99.90;;;;;;5046277;28;20045;-67
2022/05/02 07:58:24;;;;;;;12.13;7.07;;;11.70;99.90;;;;;;5046964;28;20041;-67
2022/05/02 08:00:50;;;;;;;14.88;7.18;;;11.80;99.90;;;;;;5047494;28;20070;-68
2022/05/02 08:03:23;;;;;;;10.95;6.65;;;11.80;99.90;;;;;;5047535;28;20374;-68
2022/05/02 08:05:55;;;;;;;15.75;7.00;;;11.90;99.90;;;;;;5029199;28;20037;-68
2022/05/02 08:08:32;;;;;;;10.43;6.78;;;12.00;99.90;;;;;;5044037;28;20438;-68
2022/05/02 08:11:13;;;;;;;10.90;6.57;;;12.20;99.90;;;;;;5048270;28;20060;-68
2022/05/02 08:13:50;;;;;;;10.15;6.40;;;12.30;99.90;;;;;;5048709;28;20072;-68
2022/05/02 08:16:25;;;;;;;10.75;6.60;;;12.40;99.90;;;;;;5036925;28;20060;-67
2022/05/02 08:19:08;;;;;;;10.70;7.10;;;12.50;99.90;;;;;;5027445;28;20421;-68
2022/05/02 08:21:49;;;;;;;9.88;6.75;;;12.70;99.90;;;;;;5036271;28;20389;-67
2022/05/02 08:27:27;;;;;;;9.15;6.28;;;12.80;99.90;;;;;;5048001;28;20037;-68
2022/05/02 08:29:58;;;;;;;7.93;6.25;;;12.80;99.90;;;;;;5048739;28;20052;-68
2022/05/02 08:33:02;;;;;;;10.52;6.50;;;13.10;99.90;;;;;;5046430;28;20087;-68
2022/05/02 08:35:50;;;;;;;9.77;6.32;;;13.10;99.90;;;;;;5031641;28;20523;-67
2022/05/02 08:38:36;;;;;;;11.05;6.40;;;13.20;99.90;;;;;;5046453;28;20199;-67
2022/05/02 08:41:24;;;;;;;10.95;6.47;;;13.30;99.90;;;;;;5046722;28;20068;-68
2022/05/02 08:44:32;;;;;;;11.35;6.88;;;13.50;99.90;;;;;;5047562;28;20489;-67
2022/05/02 08:47:30;;;;;;;8.20;6.10;;;13.70;99.90;;;;;;5025523;28;20102;-67
2022/05/02 08:50:02;;;;;;;9.70;6.18;;;13.90;99.90;;;;;;5032315;28;20613;-68
2022/05/02 08:53:02;;;;;;;8.65;5.70;;;14.00;99.90;;;;;;5063763;28;20561;-68
2022/05/02 08:55:48;;;;;;;9.13;6.03;;;14.20;99.90;;;;;;5049601;28;20071;-68
2022/05/02 08:58:51;;;;;;;10.73;6.85;;;14.40;99.90;;;;;;5024996;28;20047;-68
2022/05/02 09:01:58;;;;;;;13.25;7.07;;;14.50;99.90;;;;;;5026316;28;20056;-68
2022/05/02 09:04:37;;;;;;;11.63;6.95;;;14.60;99.90;;;;;;5043422;28;20060;-68
2022/05/02 09:07:32;;;;;;;11.77;6.70;;;14.50;99.90;;;;;;5043324;28;20049;-67
2022/05/02 09:10:24;;;;;;;10.35;6.35;;;14.50;99.90;;;;;;5043776;28;20136;-68
2022/05/02 09:12:56;;;;;;;10.32;6.45;;;14.70;99.90;;;;;;5026185;28;20382;-68
2022/05/02 09:15:54;;;;;;;8.60;6.57;;;15.00;99.90;;;;;;5026965;28;20555;-68
2022/05/02 09:19:02;;;;;;;8.90;6.65;;;15.10;99.90;;;;;;5026065;28;20061;-68
2022/05/02 09:21:57;;;;;;;8.52;5.65;;;15.40;99.90;;;;;;5043055;28;20091;-67
2022/05/02 09:25:14;;;;;;;7.73;6.20;;;15.60;99.90;;;;;;5043086;28;20055;-67
2022/05/02 09:28:00;;;;;;;8.18;6.35;;;15.80;99.90;;;;;;5010516;28;20061;-67
2022/05/02 09:30:41;;;;;;;11.10;5.97;;;15.80;99.90;;;;;;5047287;28;20060;-67
2022/05/02 09:33:14;;;;;;;11.15;6.03;;;15.90;99.90;;;;;;5027788;28;20060;-67
2022/05/02 09:35:59;;;;;;;9.32;6.68;;;16.00;99.90;;;;;;5029347;28;20055;-67
2022/05/02 09:38:29;;;;;;;8.32;6.05;;;16.00;99.90;;;;;;4988850;28;20052;-68
2022/05/02 09:41:00;;;;;;;9.45;6.10;;;16.20;99.90;;;;;;5047440;28;20625;-68
2022/05/02 09:49:55;;;;;;;9.63;5.70;;;16.70;99.30;;;;;;5049622;28;20048;-68
2022/05/02 09:53:12;;;;;;;8.80;5.68;;;16.80;99.40;;;;;;5050975;28;20198;-68
2022/05/02 09:58:32;;;;;;;10.00;6.25;;;17.50;98.40;;;;;;5038484;28;20148;-67
2022/05/02 10:01:26;;;;;;;8.20;5.78;;;18.20;96.50;;;;;;5048878;28;20073;-68
2022/05/02 10:04:22;;;;;;;9.70;5.93;;;20.10;93.60;;;;;;5031580;28;20120;-68
2022/05/02 10:06:48;;;;;;;9.73;5.73;;;23.10;93.20;;;;;;5057466;28;20139;-68
2022/05/02 10:09:37;;;;;;;7.88;5.75;;;25.70;80.80;;;;;;5048137;28;20376;-69
2022/05/02 10:12:17;;;;;;;8.52;5.57;;;27.80;73.70;;;;;;5022939;28;20050;-69
2022/05/02 10:15:21;;;;;;;11.05;5.60;;;30.00;65.20;;;;;;5048361;28;20117;-69
2022/05/02 10:18:24;;;;;;;7.78;5.40;;;32.00;59.80;;;;;;4988642;28;20199;-68
2022/05/02 10:21:31;;;;;;;6.32;5.10;;;33.80;56.70;;;;;;4984373;28;20573;-68
2022/05/02 10:24:19;;;;;;;6.85;5.18;;;35.50;49.60;;;;;;5045586;28;20053;-68
2022/05/02 10:26:48;;;;;;;5.65;4.43;;;37.00;49.40;;;;;;5046167;28;20506;-68
2022/05/02 10:29:32;;;;;;;9.13;4.55;;;38.10;47.10;;;;;;5063441;28;20460;-68
2022/05/02 10:32:24;;;;;;;6.60;4.13;;;39.00;44.50;;;;;;5048101;28;20049;-68
2022/05/02 10:34:52;;;;;;;6.53;4.50;;;39.50;44.50;;;;;;5045894;28;20091;-70
2022/05/02 10:37:28;;;;;;;8.23;4.05;;;39.90;42.50;;;;;;5028960;28;20143;-69
2022/05/02 10:40:03;;;;;;;6.90;4.00;;;39.40;42.40;;;;;;5044335;28;20044;-69
2022/05/02 10:42:31;;;;;;;5.32;4.07;;;39.80;42.30;;;;;;5045774;28;20508;-69
2022/05/02 10:45:05;;;;;;;6.15;4.10;;;40.60;40.50;;;;;;5025781;28;20052;-67
2022/05/02 10:47:51;;;;;;;7.40;3.97;;;41.00;41.10;;;;;;5044852;28;20521;-69
2022/05/02 10:50:31;;;;;;;5.05;3.45;;;41.60;39.50;;;;;;5047949;28;20518;-68
2022/05/02 10:53:14;;;;;;;7.25;4.20;;;40.40;38.40;;;;;;5045917;28;20049;-67
2022/05/02 10:55:50;;;;;;;6.40;3.70;;;37.30;39.20;;;;;;5048967;28;20392;-68
2022/05/02 10:58:17;;;;;;;5.93;3.70;;;35.10;40.10;;;;;;5029608;28;20500;-68
2022/05/02 11:01:08;;;;;;;5.38;3.78;;;33.30;41.10;;;;;;5048291;28;20164;-67
2022/05/02 11:03:44;;;;;;;6.30;3.80;;;31.30;41.70;;;;;;5048802;28;20417;-68
2022/05/02 11:06:38;;;;;;;4.90;3.83;;;29.80;43.40;;;;;;5049914;28;20083;-68
2022/05/02 11:09:06;;;;;;;5.30;4.13;;;29.80;43.20;;;;;;5048079;28;20045;-68
2022/05/02 11:11:40;;;;;;;4.90;3.50;;;29.60;43.50;;;;;;5049780;28;20127;-68
2022/05/02 11:14:17;;;;;;;9.13;3.60;;;31.60;43.30;;;;;;5047729;28;20052;-68
2022/05/02 11:17:13;;;;;;;7.18;4.05;;;34.50;41.80;;;;;;5048520;28;20056;-68
2022/05/02 11:22:53;;;;;;;4.43;3.00;;;39.70;39.60;;;;;;5047674;28;20061;-68
2022/05/02 11:25:26;;;;;;;6.07;3.30;;;41.30;38.20;;;;;;5048159;28;20119;-68
2022/05/02 11:28:22;;;;;;;4.60;3.40;;;42.30;37.40;;;;;;5047933;28;20293;-68
2022/05/02 11:31:06;;;;;;;5.65;3.20;;;42.80;37.20;;;;;;5047687;28;20041;-68
2022/05/02 11:33:43;;;;;;;5.22;3.55;;;41.70;36.40;;;;;;5030323;28;20041;-68
2022/05/02 11:36:11;;;;;;;6.07;3.45;;;39.40;36.00;;;;;;5028157;28;20042;-67
2022/05/02 11:39:01;;;;;;;5.03;3.60;;;36.80;36.80;;;;;;5027950;28;20431;-67
2022/05/02 11:41:29;;;;;;;5.28;3.38;;;34.60;38.00;;;;;;5029893;28;20041;-67
2022/05/02 11:44:08;;;;;;;6.20;3.50;;;32.80;39.20;;;;;;5028019;28;20115;-68
2022/05/02 11:46:46;;;;;;;6.20;3.35;;;31.40;40.10;;;;;;5011171;28;20057;-68
2022/05/02 11:49:29;;;;;;;5.75;3.22;;;30.20;41.00;;;;;;5030688;28;20098;-70
2022/05/02 11:51:58;;;;;;;5.13;3.00;;;29.30;42.30;;;;;;5029647;28;20046;-68
2022/05/02 11:54:35;;;;;;;4.53;2.75;;;28.80;42.80;;;;;;5027438;28;20053;-68
2022/05/02 11:57:17;;;;;;;4.93;2.90;;;29.80;41.30;;;;;;5028336;28;20068;-68
2022/05/02 12:00:09;;;;;;;4.75;2.90;;;32.20;39.30;;;;;;5010671;28;20465;-68
2022/05/02 12:02:38;;;;;;;4.13;2.95;;;34.20;38.00;;;;;;5013003;28;20450;-68
2022/05/02 12:05:09;;;;;;;4.32;2.70;;;35.50;37.80;;;;;;5027768;28;20049;-68
2022/05/02 12:07:38;;;;;;;4.57;2.58;;;36.60;37.50;;;;;;5026158;28;20053;-68
2022/05/02 12:10:09;;;;;;;5.28;3.10;;;37.40;37.70;;;;;;5027969;28;20855;-68
2022/05/02 12:12:36;;;;;;;5.45;3.00;;;38.00;37.20;;;;;;5027884;28;20398;-68
2022/05/02 12:15:13;;;;;;;5.40;2.90;;;38.70;37.00;;;;;;5030249;28;20045;-68
2022/05/02 12:17:52;;;;;;;6.72;3.42;;;38.50;37.40;;;;;;5046045;28;20056;-68
2022/05/02 12:20:39;;;;;;;7.43;3.35;;;38.80;37.10;;;;;;5047828;28;20045;-67
2022/05/02 12:23:08;;;;;;;7.40;3.47;;;38.30;37.50;;;;;;5047557;28;20440;-68
2022/05/02 12:25:45;;;;;;;4.70;2.95;;;38.60;38.00;;;;;;5028968;28;20090;-67
2022/05/02 12:28:12;;;;;;;6.25;3.28;;;38.90;38.10;;;;;;5048009;28;20048;-67
2022/05/02 12:30:40;;;;;;;5.72;3.63;;;39.30;38.10;;;;;;5031346;28;20055;-68
2022/05/02 12:33:08;;;;;;;5.35;3.60;;;39.10;38.40;;;;;;5049535;28;20055;-67
2022/05/02 12:35:36;;;;;;;5.78;3.67;;;37.90;38.80;;;;;;5047011;28;20037;-68
2022/05/02 12:38:11;;;;;;;5.45;3.70;;;35.50;39.50;;;;;;5046089;28;20087;-67
2022/05/02 12:40:39;;;;;;;7.07;3.75;;;33.20;40.80;;;;;;5048077;28;20107;-67
2022/05/02 12:43:10;;;;;;;6.68;3.70;;;31.40;42.20;;;;;;5047215;28;20465;-67
2022/05/02 12:45:45;;;;;;;6.75;4.22;;;30.10;43.60;;;;;;5045452;28;20426;-67
2022/05/02 12:48:19;;;;;;;;;;;28.80;43.90;;;;;;5046954;28;20080;-66
2022/05/02 12:50:46;;;;;;;5.40;3.97;;;27.60;44.70;;;;;;5047729;28;19921;-67
2022/05/02 12:54:09;;;;;;;8.35;4.10;;;26.80;46.10;;;;;;5045912;28;20085;-67
2022/05/02 12:56:07;;;;;;;5.75;4.35;;;26.70;47.40;;;;;;5029815;28;20064;-68
2022/05/02 13:01:22;;;;;;;6.45;4.47;;;24.90;48.90;;;;;;5046743;28;20184;-67
2022/05/02 13:04:00;;;;;;;8.20;4.55;;;24.50;50.20;;;;;;5050648;28;20040;-68
2022/05/02 13:06:26;;;;;;;7.13;4.38;;;24.20;50.70;;;;;;5050383;28;20057;-67
2022/05/02 13:09:14;;;;;;;7.28;4.30;;;24.10;51.40;;;;;;5050360;28;20080;-67
2022/05/02 13:11:40;;;;;;;7.70;4.45;;;23.80;51.90;;;;;;5034485;28;20072;-67
2022/05/02 13:14:07;;;;;;;6.30;4.28;;;23.60;52.10;;;;;;5050033;28;20122;-67
2022/05/02 13:16:43;;;;;;;6.63;4.32;;;23.50;52.00;;;;;;5051080;28;20063;-67
2022/05/02 13:19:10;;;;;;;7.10;4.68;;;23.50;52.40;;;;;;5051171;28;20060;-67
2022/05/02 13:21:37;;;;;;;7.38;4.40;;;23.40;52.20;;;;;;5051187;28;20095;-67
2022/05/02 13:24:10;;;;;;;8.60;4.35;;;23.00;52.60;;;;;;5049460;28;20103;-67
2022/05/02 13:27:03;;;;;;;5.85;4.28;;;22.80;53.50;;;;;;5051470;28;20052;-67
2022/05/02 13:29:57;;;;;;;5.93;4.35;;;22.70;54.00;;;;;;5049779;28;20048;-67
2022/05/02 13:32:31;;;;;;;7.15;4.50;;;22.60;54.60;;;;;;5051494;28;20143;-68
2022/05/02 13:35:11;;;;;;;7.53;4.72;;;22.40;55.10;;;;;;5049762;28;20114;-67
2022/05/02 13:38:01;;;;;;;6.22;4.45;;;22.40;55.10;;;;;;5051003;28;20345;-68
2022/05/02 13:40:37;;;;;;;7.78;4.38;;;22.30;56.20;;;;;;5051535;28;20044;-67
2022/05/02 13:43:34;;;;;;;8.25;4.53;;;22.30;56.40;;;;;;5050227;28;20044;-67
2022/05/02 13:46:00;;;;;;;6.22;4.35;;;22.10;56.60;;;;;;5049865;28;20088;-67
2022/05/02 13:48:50;;;;;;;5.90;4.00;;;22.10;56.70;;;;;;5049600;28;20088;-68